This is the latest recevied weather packets stored in our database for station/object K2ATL. If no packets are shown the sender has not sent any weather packets the latest 10 day(s).
| Time | Temp. | Humidity | Pressure | Rain* | Wind** | Luminosity | Snow |
|---|---|---|---|---|---|---|---|
| 1788112846 | 29.44° C | 68% | 1108.2 hPa | 0 mm | - | 181 W/m² | - |
| 1788112545 | 27.22° C | 68% | 1108.4 hPa | 0 mm | - | 510 W/m² | - |
| 1788112240 | 28.33° C | 67% | 1108.2 hPa | 0 mm | - | 338 W/m² | - |
| 1788111936 | 27.78° C | 68% | 1108.3 hPa | 0 mm | - | 992 W/m² | - |
| 1788111631 | 28.33° C | 67% | 1108.4 hPa | 0 mm | - | 967 W/m² | - |
| 1788111326 | 27.22° C | 68% | 1108.5 hPa | 0 mm | - | 945 W/m² | - |
| 1788111021 | 27.78° C | 71% | 1108.6 hPa | 0 mm | - | 952 W/m² | - |
| 1788110718 | 27.78° C | 66% | 1108.6 hPa | 0 mm | - | 909 W/m² | - |
| 1788110414 | 26.67° C | 67% | 1108.7 hPa | 0 mm | - | 890 W/m² | - |
| 1788110109 | 27.22° C | 67% | 1108.8 hPa | 0 mm | - | 909 W/m² | - |
| 1788109804 | 26.67° C | 75% | 1108.7 hPa | 0 mm | - | 880 W/m² | - |
| 1788109503 | 25.56° C | 72% | 1108.9 hPa | 0 mm | - | 889 W/m² | - |
| 1788109201 | 25.56° C | 73% | 1109.2 hPa | 0 mm | - | 884 W/m² | - |
| 1788108898 | 23.89° C | 80% | 1109.2 hPa | 0 mm | - | 893 W/m² | - |
| 1788108594 | 25.56° C | 77% | 1109.2 hPa | 0 mm | - | 107 W/m² | - |
| 1788108289 | 26.67° C | 77% | 1109.3 hPa | 0 mm | - | 94 W/m² | - |
| 1788107985 | 23.89° C | 80% | 1109.3 hPa | 0 mm | - | 866 W/m² | - |
| 1788107682 | 23.89° C | 82% | 1109.2 hPa | 0 mm | - | 270 W/m² | - |
| 1788107381 | 25.56° C | 80% | 1109.4 hPa | 0 mm | - | 125 W/m² | - |
| 1788107077 | 25.56° C | 81% | 1109.3 hPa | 0 mm | - | 119 W/m² | - |
| 1788106777 | 25.56° C | 79% | 1109.4 hPa | 0 mm | - | 177 W/m² | - |
| 1788106477 | 23.89° C | 79% | 1109.5 hPa | 0 mm | - | 896 W/m² | - |
| 1788106172 | 26.67° C | 78% | 1109.4 hPa | 0 mm | - | 161 W/m² | - |
| 1788105869 | 27.22° C | 74% | 1109.5 hPa | 0 mm | - | 143 W/m² | - |
| 1788105563 | 23.89° C | 80% | 1109.5 hPa | 0 mm | - | 816 W/m² | - |
* Rain latest hour (hover to see other rain measurements)
** Current wind speed in m/s (hover to see current wind gust speed)